sensor_id;sensor_type;location;lat;lon;timestamp;temperature;humidity
12769;DHT22;6448;48.916;8.990;2023-07-09T00:00:36;30.60;34.20
12769;DHT22;6448;48.916;8.990;2023-07-09T00:01:37;30.60;34.10
12769;DHT22;6448;48.916;8.990;2023-07-09T00:02:40;30.60;34.20
12769;DHT22;6448;48.916;8.990;2023-07-09T00:03:41;30.60;34.30
12769;DHT22;6448;48.916;8.990;2023-07-09T00:04:43;30.60;34.30
12769;DHT22;6448;48.916;8.990;2023-07-09T00:05:46;30.60;34.40
12769;DHT22;6448;48.916;8.990;2023-07-09T00:06:49;30.60;34.50
12769;DHT22;6448;48.916;8.990;2023-07-09T00:07:50;30.60;34.50
12769;DHT22;6448;48.916;8.990;2023-07-09T00:08:52;30.60;34.50
12769;DHT22;6448;48.916;8.990;2023-07-09T00:09:53;30.50;34.50
12769;DHT22;6448;48.916;8.990;2023-07-09T00:10:55;30.70;34.60
12769;DHT22;6448;48.916;8.990;2023-07-09T00:11:58;30.50;34.50
12769;DHT22;6448;48.916;8.990;2023-07-09T00:12:59;30.60;34.60
12769;DHT22;6448;48.916;8.990;2023-07-09T00:14:00;30.40;34.50
12769;DHT22;6448;48.916;8.990;2023-07-09T00:15:01;30.60;34.60
12769;DHT22;6448;48.916;8.990;2023-07-09T00:16:11;30.40;34.50
12769;DHT22;6448;48.916;8.990;2023-07-09T00:17:19;30.40;34.60
12769;DHT22;6448;48.916;8.990;2023-07-09T00:18:24;30.40;34.60
12769;DHT22;6448;48.916;8.990;2023-07-09T00:19:25;30.40;34.60
12769;DHT22;6448;48.916;8.990;2023-07-09T00:20:29;30.30;34.60
12769;DHT22;6448;48.916;8.990;2023-07-09T00:21:30;30.20;34.50
12769;DHT22;6448;48.916;8.990;2023-07-09T00:22:34;30.30;34.60
12769;DHT22;6448;48.916;8.990;2023-07-09T00:23:35;30.40;34.80
12769;DHT22;6448;48.916;8.990;2023-07-09T00:24:38;30.30;34.80
12769;DHT22;6448;48.916;8.990;2023-07-09T00:25:39;30.30;34.70
12769;DHT22;6448;48.916;8.990;2023-07-09T00:26:44;30.30;34.80
12769;DHT22;6448;48.916;8.990;2023-07-09T00:27:48;30.30;34.90
12769;DHT22;6448;48.916;8.990;2023-07-09T00:28:52;30.20;34.80
12769;DHT22;6448;48.916;8.990;2023-07-09T00:29:52;30.20;34.80
12769;DHT22;6448;48.916;8.990;2023-07-09T00:30:54;30.30;34.90
12769;DHT22;6448;48.916;8.990;2023-07-09T00:31:55;30.20;34.80
12769;DHT22;6448;48.916;8.990;2023-07-09T00:32:57;30.10;34.80
12769;DHT22;6448;48.916;8.990;2023-07-09T00:33:59;30.00;34.80
12769;DHT22;6448;48.916;8.990;2023-07-09T00:35:01;30.00;34.80
12769;DHT22;6448;48.916;8.990;2023-07-09T00:36:13;30.10;34.90
12769;DHT22;6448;48.916;8.990;2023-07-09T00:37:17;30.10;35.00
12769;DHT22;6448;48.916;8.990;2023-07-09T00:38:19;30.00;35.10
12769;DHT22;6448;48.916;8.990;2023-07-09T00:41:22;30.00;35.10
12769;DHT22;6448;48.916;8.990;2023-07-09T00:42:26;30.10;35.10
12769;DHT22;6448;48.916;8.990;2023-07-09T00:43:30;30.00;35.00
12769;DHT22;6448;48.916;8.990;2023-07-09T00:44:32;30.30;35.30
12769;DHT22;6448;48.916;8.990;2023-07-09T00:45:35;29.90;35.40
12769;DHT22;6448;48.916;8.990;2023-07-09T00:48:19;29.90;35.30
12769;DHT22;6448;48.916;8.990;2023-07-09T00:49:28;29.90;35.30
12769;DHT22;6448;48.916;8.990;2023-07-09T00:50:35;29.90;35.40
12769;DHT22;6448;48.916;8.990;2023-07-09T00:51:42;29.80;35.40
12769;DHT22;6448;48.916;8.990;2023-07-09T00:52:49;29.80;35.40
12769;DHT22;6448;48.916;8.990;2023-07-09T00:53:55;29.80;35.40
12769;DHT22;6448;48.916;8.990;2023-07-09T00:55:00;29.80;35.40
12769;DHT22;6448;48.916;8.990;2023-07-09T00:56:06;29.70;35.30
12769;DHT22;6448;48.916;8.990;2023-07-09T00:57:11;29.90;35.50
12769;DHT22;6448;48.916;8.990;2023-07-09T00:58:14;29.70;35.50
12769;DHT22;6448;48.916;8.990;2023-07-09T00:59:22;29.70;35.50
12769;DHT22;6448;48.916;8.990;2023-07-09T01:00:30;29.90;35.70
12769;DHT22;6448;48.916;8.990;2023-07-09T01:01:37;29.70;35.50
12769;DHT22;6448;48.916;8.990;2023-07-09T01:02:46;29.80;35.60
12769;DHT22;6448;48.916;8.990;2023-07-09T01:03:52;29.70;35.60
12769;DHT22;6448;48.916;8.990;2023-07-09T01:04:59;29.70;35.60
12769;DHT22;6448;48.916;8.990;2023-07-09T01:06:02;29.70;35.70
12769;DHT22;6448;48.916;8.990;2023-07-09T01:07:06;29.60;35.70
12769;DHT22;6448;48.916;8.990;2023-07-09T01:08:08;29.70;35.70
12769;DHT22;6448;48.916;8.990;2023-07-09T01:09:10;29.80;35.80
12769;DHT22;6448;48.916;8.990;2023-07-09T01:10:11;29.60;35.80
12769;DHT22;6448;48.916;8.990;2023-07-09T01:11:19;29.60;35.90
12769;DHT22;6448;48.916;8.990;2023-07-09T01:12:27;29.50;35.80
12769;DHT22;6448;48.916;8.990;2023-07-09T01:13:41;29.50;35.80
12769;DHT22;6448;48.916;8.990;2023-07-09T01:14:45;29.60;36.00
12769;DHT22;6448;48.916;8.990;2023-07-09T01:15:49;29.50;35.90
12769;DHT22;6448;48.916;8.990;2023-07-09T01:16:52;29.60;36.00
12769;DHT22;6448;48.916;8.990;2023-07-09T01:17:57;29.40;35.90
12769;DHT22;6448;48.916;8.990;2023-07-09T01:18:59;29.50;36.00
12769;DHT22;6448;48.916;8.990;2023-07-09T01:20:03;29.40;35.90
12769;DHT22;6448;48.916;8.990;2023-07-09T01:21:10;29.40;36.00
12769;DHT22;6448;48.916;8.990;2023-07-09T01:22:17;29.40;36.00
12769;DHT22;6448;48.916;8.990;2023-07-09T01:23:19;29.40;36.00
12769;DHT22;6448;48.916;8.990;2023-07-09T01:24:47;29.40;36.00
12769;DHT22;6448;48.916;8.990;2023-07-09T01:25:51;29.40;36.10
12769;DHT22;6448;48.916;8.990;2023-07-09T01:26:55;29.30;36.10
12769;DHT22;6448;48.916;8.990;2023-07-09T01:27:56;29.30;36.10
12769;DHT22;6448;48.916;8.990;2023-07-09T01:28:59;29.30;36.20
12769;DHT22;6448;48.916;8.990;2023-07-09T01:30:04;29.30;36.20
12769;DHT22;6448;48.916;8.990;2023-07-09T01:31:07;29.30;36.30
12769;DHT22;6448;48.916;8.990;2023-07-09T01:32:10;29.30;36.40
12769;DHT22;6448;48.916;8.990;2023-07-09T01:33:13;29.40;36.40
12769;DHT22;6448;48.916;8.990;2023-07-09T01:34:15;29.20;36.30
12769;DHT22;6448;48.916;8.990;2023-07-09T01:35:18;29.20;36.40
12769;DHT22;6448;48.916;8.990;2023-07-09T01:36:21;29.20;36.40
12769;DHT22;6448;48.916;8.990;2023-07-09T01:37:27;29.20;36.40
12769;DHT22;6448;48.916;8.990;2023-07-09T01:38:28;29.10;36.40
12769;DHT22;6448;48.916;8.990;2023-07-09T01:39:30;29.10;36.40
12769;DHT22;6448;48.916;8.990;2023-07-09T01:40:33;29.10;36.50
12769;DHT22;6448;48.916;8.990;2023-07-09T01:41:35;29.10;36.50
12769;DHT22;6448;48.916;8.990;2023-07-09T01:42:36;29.10;36.60
12769;DHT22;6448;48.916;8.990;2023-07-09T01:43:40;29.00;36.60
12769;DHT22;6448;48.916;8.990;2023-07-09T01:44:42;29.10;36.70
12769;DHT22;6448;48.916;8.990;2023-07-09T01:45:44;29.00;36.60
12769;DHT22;6448;48.916;8.990;2023-07-09T01:46:45;29.10;36.70
12769;DHT22;6448;48.916;8.990;2023-07-09T01:47:47;29.00;36.60
12769;DHT22;6448;48.916;8.990;2023-07-09T01:48:48;29.00;36.60
12769;DHT22;6448;48.916;8.990;2023-07-09T01:49:53;29.00;36.60
12769;DHT22;6448;48.916;8.990;2023-07-09T01:50:57;29.10;36.70
12769;DHT22;6448;48.916;8.990;2023-07-09T01:52:02;29.00;36.60
12769;DHT22;6448;48.916;8.990;2023-07-09T01:53:03;29.00;37.30
12769;DHT22;6448;48.916;8.990;2023-07-09T01:54:06;29.00;36.70
12769;DHT22;6448;48.916;8.990;2023-07-09T01:55:11;28.90;36.60
12769;DHT22;6448;48.916;8.990;2023-07-09T01:56:13;29.10;36.90
12769;DHT22;6448;48.916;8.990;2023-07-09T01:57:16;28.90;36.80
12769;DHT22;6448;48.916;8.990;2023-07-09T01:58:20;28.90;36.80
12769;DHT22;6448;48.916;8.990;2023-07-09T01:59:25;28.80;36.80
12769;DHT22;6448;48.916;8.990;2023-07-09T02:00:27;28.90;36.90
12769;DHT22;6448;48.916;8.990;2023-07-09T02:01:28;28.90;36.90
12769;DHT22;6448;48.916;8.990;2023-07-09T02:02:31;28.90;36.90
12769;DHT22;6448;48.916;8.990;2023-07-09T02:03:32;28.80;36.90
12769;DHT22;6448;48.916;8.990;2023-07-09T02:04:34;28.80;36.90
12769;DHT22;6448;48.916;8.990;2023-07-09T02:05:35;28.80;36.90
12769;DHT22;6448;48.916;8.990;2023-07-09T02:06:37;28.70;36.90
12769;DHT22;6448;48.916;8.990;2023-07-09T02:07:39;28.90;37.10
12769;DHT22;6448;48.916;8.990;2023-07-09T02:08:40;28.70;37.10
12769;DHT22;6448;48.916;8.990;2023-07-09T02:09:42;28.70;37.10
12769;DHT22;6448;48.916;8.990;2023-07-09T02:10:45;28.60;37.10
12769;DHT22;6448;48.916;8.990;2023-07-09T02:11:49;28.70;37.30
12769;DHT22;6448;48.916;8.990;2023-07-09T02:12:50;28.70;37.30
12769;DHT22;6448;48.916;8.990;2023-07-09T02:13:51;28.70;37.30
12769;DHT22;6448;48.916;8.990;2023-07-09T02:14:52;28.60;37.30
12769;DHT22;6448;48.916;8.990;2023-07-09T02:15:53;28.60;37.30
12769;DHT22;6448;48.916;8.990;2023-07-09T02:16:55;28.60;37.30
12769;DHT22;6448;48.916;8.990;2023-07-09T02:17:58;28.60;37.30
12769;DHT22;6448;48.916;8.990;2023-07-09T02:19:02;28.60;37.30
12769;DHT22;6448;48.916;8.990;2023-07-09T02:20:03;28.60;37.30
12769;DHT22;6448;48.916;8.990;2023-07-09T02:21:07;28.60;37.50
12769;DHT22;6448;48.916;8.990;2023-07-09T02:22:08;28.50;37.40
12769;DHT22;6448;48.916;8.990;2023-07-09T02:23:12;28.50;37.50
12769;DHT22;6448;48.916;8.990;2023-07-09T02:24:13;28.60;37.60
12769;DHT22;6448;48.916;8.990;2023-07-09T02:25:16;28.50;37.50
12769;DHT22;6448;48.916;8.990;2023-07-09T02:26:17;28.50;37.50
12769;DHT22;6448;48.916;8.990;2023-07-09T02:27:19;28.50;37.50
12769;DHT22;6448;48.916;8.990;2023-07-09T02:28:20;28.50;37.60
12769;DHT22;6448;48.916;8.990;2023-07-09T02:29:23;28.70;37.70
12769;DHT22;6448;48.916;8.990;2023-07-09T02:30:24;28.40;37.60
12769;DHT22;6448;48.916;8.990;2023-07-09T02:31:26;28.40;37.60
12769;DHT22;6448;48.916;8.990;2023-07-09T02:32:30;28.60;37.70
12769;DHT22;6448;48.916;8.990;2023-07-09T02:33:32;28.40;37.60
12769;DHT22;6448;48.916;8.990;2023-07-09T02:34:34;28.40;37.60
12769;DHT22;6448;48.916;8.990;2023-07-09T02:35:36;28.40;37.60
12769;DHT22;6448;48.916;8.990;2023-07-09T02:36:37;28.40;37.70
12769;DHT22;6448;48.916;8.990;2023-07-09T02:37:43;28.40;37.70
12769;DHT22;6448;48.916;8.990;2023-07-09T02:38:45;28.40;37.70
12769;DHT22;6448;48.916;8.990;2023-07-09T02:39:48;28.30;37.70
12769;DHT22;6448;48.916;8.990;2023-07-09T02:40:48;28.50;37.90
12769;DHT22;6448;48.916;8.990;2023-07-09T02:41:51;28.30;37.80
12769;DHT22;6448;48.916;8.990;2023-07-09T02:42:52;28.30;37.80
12769;DHT22;6448;48.916;8.990;2023-07-09T02:43:54;28.40;37.90
12769;DHT22;6448;48.916;8.990;2023-07-09T02:44:54;28.30;37.80
12769;DHT22;6448;48.916;8.990;2023-07-09T02:45:59;28.30;37.90
12769;DHT22;6448;48.916;8.990;2023-07-09T02:47:00;28.30;37.90
12769;DHT22;6448;48.916;8.990;2023-07-09T02:48:03;28.30;37.90
12769;DHT22;6448;48.916;8.990;2023-07-09T02:49:11;28.20;37.90
12769;DHT22;6448;48.916;8.990;2023-07-09T02:50:13;28.20;37.90
12769;DHT22;6448;48.916;8.990;2023-07-09T02:51:14;28.20;38.00
12769;DHT22;6448;48.916;8.990;2023-07-09T02:52:15;28.20;38.00
12769;DHT22;6448;48.916;8.990;2023-07-09T02:53:16;28.20;38.00
12769;DHT22;6448;48.916;8.990;2023-07-09T02:54:19;28.20;38.00
12769;DHT22;6448;48.916;8.990;2023-07-09T02:55:20;28.20;38.00
12769;DHT22;6448;48.916;8.990;2023-07-09T02:56:22;28.10;38.10
12769;DHT22;6448;48.916;8.990;2023-07-09T02:57:23;28.00;38.20
12769;DHT22;6448;48.916;8.990;2023-07-09T02:58:25;28.10;38.20
12769;DHT22;6448;48.916;8.990;2023-07-09T02:59:26;28.20;38.30
12769;DHT22;6448;48.916;8.990;2023-07-09T03:00:30;28.10;38.30
12769;DHT22;6448;48.916;8.990;2023-07-09T03:01:31;28.10;38.40
12769;DHT22;6448;48.916;8.990;2023-07-09T03:02:34;28.10;38.50
12769;DHT22;6448;48.916;8.990;2023-07-09T03:03:35;28.00;38.50
12769;DHT22;6448;48.916;8.990;2023-07-09T03:04:37;28.00;38.50
12769;DHT22;6448;48.916;8.990;2023-07-09T03:05:38;28.00;38.50
12769;DHT22;6448;48.916;8.990;2023-07-09T03:06:39;28.00;38.50
12769;DHT22;6448;48.916;8.990;2023-07-09T03:07:40;28.00;38.60
12769;DHT22;6448;48.916;8.990;2023-07-09T03:08:42;28.00;38.50
12769;DHT22;6448;48.916;8.990;2023-07-09T03:09:44;28.00;38.50
12769;DHT22;6448;48.916;8.990;2023-07-09T03:10:46;27.90;38.50
12769;DHT22;6448;48.916;8.990;2023-07-09T03:11:47;28.00;38.60
12769;DHT22;6448;48.916;8.990;2023-07-09T03:12:49;27.90;38.50
12769;DHT22;6448;48.916;8.990;2023-07-09T03:13:50;27.90;38.50
12769;DHT22;6448;48.916;8.990;2023-07-09T03:14:51;28.10;38.70
12769;DHT22;6448;48.916;8.990;2023-07-09T03:15:56;28.00;39.30
12769;DHT22;6448;48.916;8.990;2023-07-09T03:16:58;27.90;38.50
12769;DHT22;6448;48.916;8.990;2023-07-09T03:17:58;27.90;38.50
12769;DHT22;6448;48.916;8.990;2023-07-09T03:19:00;27.80;38.40
12769;DHT22;6448;48.916;8.990;2023-07-09T03:20:01;27.80;38.50
12769;DHT22;6448;48.916;8.990;2023-07-09T03:21:04;27.90;38.60
12769;DHT22;6448;48.916;8.990;2023-07-09T03:22:05;27.80;38.50
12769;DHT22;6448;48.916;8.990;2023-07-09T03:23:06;27.80;38.50
12769;DHT22;6448;48.916;8.990;2023-07-09T03:24:08;27.70;38.50
12769;DHT22;6448;48.916;8.990;2023-07-09T03:25:10;27.80;38.60
12769;DHT22;6448;48.916;8.990;2023-07-09T03:26:12;27.60;38.60
12769;DHT22;6448;48.916;8.990;2023-07-09T03:27:13;27.70;38.70
12769;DHT22;6448;48.916;8.990;2023-07-09T03:28:14;27.70;38.70
12769;DHT22;6448;48.916;8.990;2023-07-09T03:29:16;27.70;38.80
12769;DHT22;6448;48.916;8.990;2023-07-09T03:30:18;27.70;38.90
12769;DHT22;6448;48.916;8.990;2023-07-09T03:31:19;27.70;38.90
12769;DHT22;6448;48.916;8.990;2023-07-09T03:32:20;27.70;39.00
12769;DHT22;6448;48.916;8.990;2023-07-09T03:33:22;27.70;39.10
12769;DHT22;6448;48.916;8.990;2023-07-09T03:34:23;27.60;39.00
12769;DHT22;6448;48.916;8.990;2023-07-09T03:35:25;27.60;39.00
12769;DHT22;6448;48.916;8.990;2023-07-09T03:36:26;27.80;39.20
12769;DHT22;6448;48.916;8.990;2023-07-09T03:37:27;27.60;39.10
12769;DHT22;6448;48.916;8.990;2023-07-09T03:38:28;27.60;39.10
12769;DHT22;6448;48.916;8.990;2023-07-09T03:39:30;27.50;39.00
12769;DHT22;6448;48.916;8.990;2023-07-09T03:40:32;27.60;39.70
12769;DHT22;6448;48.916;8.990;2023-07-09T03:41:34;27.70;39.10
12769;DHT22;6448;48.916;8.990;2023-07-09T03:42:35;27.60;39.00
12769;DHT22;6448;48.916;8.990;2023-07-09T03:43:37;27.60;39.00
12769;DHT22;6448;48.916;8.990;2023-07-09T03:44:37;27.60;39.10
12769;DHT22;6448;48.916;8.990;2023-07-09T03:45:39;27.50;39.10
12769;DHT22;6448;48.916;8.990;2023-07-09T03:46:40;27.50;39.10
12769;DHT22;6448;48.916;8.990;2023-07-09T03:47:42;27.50;39.10
12769;DHT22;6448;48.916;8.990;2023-07-09T03:48:42;27.60;39.20
12769;DHT22;6448;48.916;8.990;2023-07-09T03:49:44;27.50;39.20
12769;DHT22;6448;48.916;8.990;2023-07-09T03:50:46;27.50;39.20
12769;DHT22;6448;48.916;8.990;2023-07-09T03:51:48;27.50;39.30
12769;DHT22;6448;48.916;8.990;2023-07-09T03:52:49;27.50;39.30
12769;DHT22;6448;48.916;8.990;2023-07-09T03:53:51;27.50;39.40
12769;DHT22;6448;48.916;8.990;2023-07-09T03:54:52;27.50;39.40
12769;DHT22;6448;48.916;8.990;2023-07-09T03:55:55;27.50;39.40
12769;DHT22;6448;48.916;8.990;2023-07-09T03:56:56;27.40;39.40
12769;DHT22;6448;48.916;8.990;2023-07-09T03:57:58;27.40;39.50
12769;DHT22;6448;48.916;8.990;2023-07-09T03:58:59;27.40;39.50
12769;DHT22;6448;48.916;8.990;2023-07-09T04:00:01;27.40;39.50
12769;DHT22;6448;48.916;8.990;2023-07-09T04:01:03;27.40;39.60
12769;DHT22;6448;48.916;8.990;2023-07-09T04:02:05;27.30;39.60
12769;DHT22;6448;48.916;8.990;2023-07-09T04:03:07;27.40;39.60
12769;DHT22;6448;48.916;8.990;2023-07-09T04:04:10;27.30;39.70
12769;DHT22;6448;48.916;8.990;2023-07-09T04:05:11;27.30;39.80
12769;DHT22;6448;48.916;8.990;2023-07-09T04:06:13;27.30;39.90
12769;DHT22;6448;48.916;8.990;2023-07-09T04:07:14;27.30;39.80
12769;DHT22;6448;48.916;8.990;2023-07-09T04:08:17;27.30;39.90
12769;DHT22;6448;48.916;8.990;2023-07-09T04:09:17;27.30;39.90
12769;DHT22;6448;48.916;8.990;2023-07-09T04:10:19;27.30;40.00
12769;DHT22;6448;48.916;8.990;2023-07-09T04:11:22;27.20;40.00
12769;DHT22;6448;48.916;8.990;2023-07-09T04:12:23;27.20;40.00
12769;DHT22;6448;48.916;8.990;2023-07-09T04:13:24;27.20;40.00
12769;DHT22;6448;48.916;8.990;2023-07-09T04:14:27;27.20;40.00
12769;DHT22;6448;48.916;8.990;2023-07-09T04:15:29;27.30;40.10
12769;DHT22;6448;48.916;8.990;2023-07-09T04:16:31;27.30;40.10
12769;DHT22;6448;48.916;8.990;2023-07-09T04:17:32;27.20;40.10
12769;DHT22;6448;48.916;8.990;2023-07-09T04:18:34;27.20;40.10
12769;DHT22;6448;48.916;8.990;2023-07-09T04:19:36;27.20;40.10
12769;DHT22;6448;48.916;8.990;2023-07-09T04:20:38;27.20;40.20
12769;DHT22;6448;48.916;8.990;2023-07-09T04:21:39;27.20;40.90
12769;DHT22;6448;48.916;8.990;2023-07-09T04:22:41;27.20;40.30
12769;DHT22;6448;48.916;8.990;2023-07-09T04:23:42;27.20;40.40
12769;DHT22;6448;48.916;8.990;2023-07-09T04:24:44;27.20;40.40
12769;DHT22;6448;48.916;8.990;2023-07-09T04:25:45;27.20;40.50
12769;DHT22;6448;48.916;8.990;2023-07-09T04:26:48;27.10;40.50
12769;DHT22;6448;48.916;8.990;2023-07-09T04:27:49;27.10;40.50
12769;DHT22;6448;48.916;8.990;2023-07-09T04:28:50;27.20;40.60
12769;DHT22;6448;48.916;8.990;2023-07-09T04:29:51;27.10;40.60
12769;DHT22;6448;48.916;8.990;2023-07-09T04:30:53;27.20;40.80
12769;DHT22;6448;48.916;8.990;2023-07-09T04:31:54;27.10;40.70
12769;DHT22;6448;48.916;8.990;2023-07-09T04:32:55;27.10;40.70
12769;DHT22;6448;48.916;8.990;2023-07-09T04:33:56;27.10;40.70
12769;DHT22;6448;48.916;8.990;2023-07-09T04:34:58;27.10;40.70
12769;DHT22;6448;48.916;8.990;2023-07-09T04:35:59;27.10;40.80
12769;DHT22;6448;48.916;8.990;2023-07-09T04:37:01;27.10;40.80
12769;DHT22;6448;48.916;8.990;2023-07-09T04:38:01;27.10;40.80
12769;DHT22;6448;48.916;8.990;2023-07-09T04:39:04;27.10;40.90
12769;DHT22;6448;48.916;8.990;2023-07-09T04:40:06;27.10;41.00
12769;DHT22;6448;48.916;8.990;2023-07-09T04:41:10;27.10;41.10
12769;DHT22;6448;48.916;8.990;2023-07-09T04:42:14;27.00;41.10
12769;DHT22;6448;48.916;8.990;2023-07-09T04:43:15;27.10;41.30
12769;DHT22;6448;48.916;8.990;2023-07-09T04:44:17;27.00;41.20
12769;DHT22;6448;48.916;8.990;2023-07-09T04:45:18;27.30;41.40
12769;DHT22;6448;48.916;8.990;2023-07-09T04:46:20;27.00;41.50
12769;DHT22;6448;48.916;8.990;2023-07-09T04:47:21;27.30;41.70
12769;DHT22;6448;48.916;8.990;2023-07-09T04:48:21;27.00;41.50
12769;DHT22;6448;48.916;8.990;2023-07-09T04:49:23;27.00;41.60
12769;DHT22;6448;48.916;8.990;2023-07-09T04:50:24;27.00;41.60
12769;DHT22;6448;48.916;8.990;2023-07-09T04:51:26;27.00;41.60
12769;DHT22;6448;48.916;8.990;2023-07-09T04:52:29;26.90;41.70
12769;DHT22;6448;48.916;8.990;2023-07-09T04:53:32;27.00;41.70
12769;DHT22;6448;48.916;8.990;2023-07-09T04:54:32;27.00;41.80
12769;DHT22;6448;48.916;8.990;2023-07-09T04:55:34;27.00;41.80
12769;DHT22;6448;48.916;8.990;2023-07-09T04:56:35;27.00;41.90
12769;DHT22;6448;48.916;8.990;2023-07-09T04:57:39;27.00;41.90
12769;DHT22;6448;48.916;8.990;2023-07-09T04:58:40;27.00;41.80
12769;DHT22;6448;48.916;8.990;2023-07-09T04:59:42;27.00;41.80
12769;DHT22;6448;48.916;8.990;2023-07-09T05:00:42;27.00;41.80
12769;DHT22;6448;48.916;8.990;2023-07-09T05:01:44;27.00;41.80
12769;DHT22;6448;48.916;8.990;2023-07-09T05:02:45;27.00;41.80
12769;DHT22;6448;48.916;8.990;2023-07-09T05:03:47;27.00;41.90
12769;DHT22;6448;48.916;8.990;2023-07-09T05:04:48;27.10;41.90
12769;DHT22;6448;48.916;8.990;2023-07-09T05:05:49;27.00;41.90
12769;DHT22;6448;48.916;8.990;2023-07-09T05:06:50;27.00;41.90
12769;DHT22;6448;48.916;8.990;2023-07-09T05:07:52;27.00;41.90
12769;DHT22;6448;48.916;8.990;2023-07-09T05:08:53;27.10;42.10
12769;DHT22;6448;48.916;8.990;2023-07-09T05:09:54;26.90;42.00
12769;DHT22;6448;48.916;8.990;2023-07-09T05:10:57;27.00;42.10
12769;DHT22;6448;48.916;8.990;2023-07-09T05:11:59;27.00;42.10
12769;DHT22;6448;48.916;8.990;2023-07-09T05:13:02;27.00;42.20
12769;DHT22;6448;48.916;8.990;2023-07-09T05:14:03;27.00;42.20
12769;DHT22;6448;48.916;8.990;2023-07-09T05:15:05;27.00;42.10
12769;DHT22;6448;48.916;8.990;2023-07-09T05:16:07;27.00;42.20
12769;DHT22;6448;48.916;8.990;2023-07-09T05:17:08;27.00;42.20
12769;DHT22;6448;48.916;8.990;2023-07-09T05:18:10;26.90;42.10
12769;DHT22;6448;48.916;8.990;2023-07-09T05:19:11;27.00;42.10
12769;DHT22;6448;48.916;8.990;2023-07-09T05:20:12;27.00;42.30
12769;DHT22;6448;48.916;8.990;2023-07-09T05:21:14;27.00;42.20
12769;DHT22;6448;48.916;8.990;2023-07-09T05:22:14;26.60;41.90
12769;DHT22;6448;48.916;8.990;2023-07-09T05:23:16;27.00;42.10
12769;DHT22;6448;48.916;8.990;2023-07-09T05:24:17;27.00;42.20
12769;DHT22;6448;48.916;8.990;2023-07-09T05:25:19;26.90;42.10
12769;DHT22;6448;48.916;8.990;2023-07-09T05:26:20;27.00;42.20
12769;DHT22;6448;48.916;8.990;2023-07-09T05:27:21;27.00;42.30
12769;DHT22;6448;48.916;8.990;2023-07-09T05:28:24;27.00;42.20
12769;DHT22;6448;48.916;8.990;2023-07-09T05:29:25;27.10;42.30
12769;DHT22;6448;48.916;8.990;2023-07-09T05:30:27;27.10;42.30
12769;DHT22;6448;48.916;8.990;2023-07-09T05:31:29;27.00;42.20
12769;DHT22;6448;48.916;8.990;2023-07-09T05:32:29;27.00;42.30
12769;DHT22;6448;48.916;8.990;2023-07-09T05:33:31;27.00;42.30
12769;DHT22;6448;48.916;8.990;2023-07-09T05:34:32;27.00;42.30
12769;DHT22;6448;48.916;8.990;2023-07-09T05:35:34;27.00;42.30
12769;DHT22;6448;48.916;8.990;2023-07-09T05:36:35;27.00;42.40
12769;DHT22;6448;48.916;8.990;2023-07-09T05:37:37;27.00;42.40
12769;DHT22;6448;48.916;8.990;2023-07-09T05:38:38;26.90;42.50
12769;DHT22;6448;48.916;8.990;2023-07-09T05:39:38;27.00;42.40
12769;DHT22;6448;48.916;8.990;2023-07-09T05:40:40;27.00;42.50
12769;DHT22;6448;48.916;8.990;2023-07-09T05:41:41;27.10;42.50
12769;DHT22;6448;48.916;8.990;2023-07-09T05:42:43;27.00;42.50
12769;DHT22;6448;48.916;8.990;2023-07-09T05:43:45;27.00;42.40
12769;DHT22;6448;48.916;8.990;2023-07-09T05:44:48;27.00;42.40
12769;DHT22;6448;48.916;8.990;2023-07-09T05:45:48;27.00;42.50
12769;DHT22;6448;48.916;8.990;2023-07-09T05:46:50;27.00;42.50
12769;DHT22;6448;48.916;8.990;2023-07-09T05:47:51;27.00;42.50
12769;DHT22;6448;48.916;8.990;2023-07-09T05:48:53;27.00;42.50
12769;DHT22;6448;48.916;8.990;2023-07-09T05:49:53;27.00;42.50
12769;DHT22;6448;48.916;8.990;2023-07-09T05:50:55;27.00;42.60
12769;DHT22;6448;48.916;8.990;2023-07-09T05:51:56;27.00;42.50
12769;DHT22;6448;48.916;8.990;2023-07-09T05:52:58;27.10;42.60
12769;DHT22;6448;48.916;8.990;2023-07-09T05:53:58;27.00;42.60
12769;DHT22;6448;48.916;8.990;2023-07-09T05:55:00;27.00;42.60
12769;DHT22;6448;48.916;8.990;2023-07-09T05:56:01;27.00;42.60
12769;DHT22;6448;48.916;8.990;2023-07-09T05:57:03;27.00;42.60
12769;DHT22;6448;48.916;8.990;2023-07-09T05:58:04;27.00;42.60
12769;DHT22;6448;48.916;8.990;2023-07-09T05:59:07;27.00;42.60
12769;DHT22;6448;48.916;8.990;2023-07-09T06:00:09;27.10;42.60
12769;DHT22;6448;48.916;8.990;2023-07-09T06:01:14;27.10;42.70
12769;DHT22;6448;48.916;8.990;2023-07-09T06:02:17;27.10;42.70
12769;DHT22;6448;48.916;8.990;2023-07-09T06:03:20;27.10;42.70
12769;DHT22;6448;48.916;8.990;2023-07-09T06:04:22;27.10;42.70
12769;DHT22;6448;48.916;8.990;2023-07-09T06:05:25;27.10;42.70
12769;DHT22;6448;48.916;8.990;2023-07-09T06:06:27;27.10;42.70
12769;DHT22;6448;48.916;8.990;2023-07-09T06:07:28;27.10;42.60
12769;DHT22;6448;48.916;8.990;2023-07-09T06:08:29;27.20;42.80
12769;DHT22;6448;48.916;8.990;2023-07-09T06:09:31;27.10;42.80
12769;DHT22;6448;48.916;8.990;2023-07-09T06:10:32;27.10;42.90
12769;DHT22;6448;48.916;8.990;2023-07-09T06:11:34;27.00;42.90
12769;DHT22;6448;48.916;8.990;2023-07-09T06:12:35;27.10;42.90
12769;DHT22;6448;48.916;8.990;2023-07-09T06:13:36;27.20;43.10
12769;DHT22;6448;48.916;8.990;2023-07-09T06:14:39;27.20;43.20
12769;DHT22;6448;48.916;8.990;2023-07-09T06:15:41;27.20;43.20
12769;DHT22;6448;48.916;8.990;2023-07-09T06:16:42;27.20;43.20
12769;DHT22;6448;48.916;8.990;2023-07-09T06:17:44;27.20;43.30
12769;DHT22;6448;48.916;8.990;2023-07-09T06:18:44;27.20;43.20
12769;DHT22;6448;48.916;8.990;2023-07-09T06:19:46;27.20;43.30
12769;DHT22;6448;48.916;8.990;2023-07-09T06:20:48;27.20;43.30
12769;DHT22;6448;48.916;8.990;2023-07-09T06:21:50;27.20;43.40
12769;DHT22;6448;48.916;8.990;2023-07-09T06:22:51;27.20;43.50
12769;DHT22;6448;48.916;8.990;2023-07-09T06:23:53;27.30;43.50
12769;DHT22;6448;48.916;8.990;2023-07-09T06:24:54;27.30;43.60
12769;DHT22;6448;48.916;8.990;2023-07-09T06:25:56;27.30;43.70
12769;DHT22;6448;48.916;8.990;2023-07-09T06:26:57;27.30;43.60
12769;DHT22;6448;48.916;8.990;2023-07-09T06:27:59;27.30;43.80
12769;DHT22;6448;48.916;8.990;2023-07-09T06:29:00;27.30;43.80
12769;DHT22;6448;48.916;8.990;2023-07-09T06:30:05;27.30;43.80
12769;DHT22;6448;48.916;8.990;2023-07-09T06:31:06;27.30;43.90
12769;DHT22;6448;48.916;8.990;2023-07-09T06:32:07;27.30;43.90
12769;DHT22;6448;48.916;8.990;2023-07-09T06:33:09;27.30;44.00
12769;DHT22;6448;48.916;8.990;2023-07-09T06:34:11;27.30;44.00
12769;DHT22;6448;48.916;8.990;2023-07-09T06:35:12;27.30;43.90
12769;DHT22;6448;48.916;8.990;2023-07-09T06:36:14;27.30;44.00
12769;DHT22;6448;48.916;8.990;2023-07-09T06:37:14;27.40;44.00
12769;DHT22;6448;48.916;8.990;2023-07-09T06:38:16;27.30;44.00
12769;DHT22;6448;48.916;8.990;2023-07-09T06:39:18;27.30;43.90
12769;DHT22;6448;48.916;8.990;2023-07-09T06:40:20;27.30;44.00
12769;DHT22;6448;48.916;8.990;2023-07-09T06:41:20;27.50;44.30
12769;DHT22;6448;48.916;8.990;2023-07-09T06:42:22;27.40;44.10
12769;DHT22;6448;48.916;8.990;2023-07-09T06:43:38;27.30;44.10